sensor_id;sensor_type;location;lat;lon;timestamp;pressure;altitude;pressure_sealevel;temperature;humidity
56568;BME280;42456;49.956;20.004;2022-08-01T00:01:12;98095.41;;;16.49;85.69
56568;BME280;42456;49.956;20.004;2022-08-01T00:03:39;98093.63;;;16.47;85.61
56568;BME280;42456;49.956;20.004;2022-08-01T00:06:05;98089.36;;;16.46;85.58
56568;BME280;42456;49.956;20.004;2022-08-01T00:08:31;98086.23;;;16.44;85.70
56568;BME280;42456;49.956;20.004;2022-08-01T00:10:58;98086.03;;;16.43;85.64
56568;BME280;42456;49.956;20.004;2022-08-01T00:13:24;98086.14;;;16.41;85.57
56568;BME280;42456;49.956;20.004;2022-08-01T00:15:50;98079.73;;;16.39;85.62
56568;BME280;42456;49.956;20.004;2022-08-01T00:18:16;98085.53;;;16.38;85.65
56568;BME280;42456;49.956;20.004;2022-08-01T00:20:43;98090.77;;;16.37;85.65
56568;BME280;42456;49.956;20.004;2022-08-01T00:23:09;98090.56;;;16.36;85.74
56568;BME280;42456;49.956;20.004;2022-08-01T00:25:35;98089.77;;;16.35;85.75
56568;BME280;42456;49.956;20.004;2022-08-01T00:28:02;98091.13;;;16.35;85.69
56568;BME280;42456;49.956;20.004;2022-08-01T00:30:28;98090.34;;;16.35;85.66
56568;BME280;42456;49.956;20.004;2022-08-01T00:32:54;98086.64;;;16.33;85.67
56568;BME280;42456;49.956;20.004;2022-08-01T00:35:21;98081.44;;;16.34;85.70
56568;BME280;42456;49.956;20.004;2022-08-01T00:37:47;98085.09;;;16.32;85.63
56568;BME280;42456;49.956;20.004;2022-08-01T00:40:13;98085.09;;;16.32;85.73
56568;BME280;42456;49.956;20.004;2022-08-01T00:42:40;98084.89;;;16.31;85.61
56568;BME280;42456;49.956;20.004;2022-08-01T00:45:07;98084.66;;;16.30;85.73
56568;BME280;42456;49.956;20.004;2022-08-01T00:47:34;98083.11;;;16.29;85.68
56568;BME280;42456;49.956;20.004;2022-08-01T00:50:07;98085.20;;;16.26;85.69
56568;BME280;42456;49.956;20.004;2022-08-01T00:52:32;98086.38;;;16.25;85.66
56568;BME280;42456;49.956;20.004;2022-08-01T00:54:59;98091.38;;;16.23;85.61
56568;BME280;42456;49.956;20.004;2022-08-01T00:57:25;98088.61;;;16.20;85.67
56568;BME280;42456;49.956;20.004;2022-08-01T00:59:52;98091.92;;;16.19;85.71
56568;BME280;42456;49.956;20.004;2022-08-01T01:02:19;98087.98;;;16.17;85.68
56568;BME280;42456;49.956;20.004;2022-08-01T01:04:45;98085.45;;;16.14;85.69
56568;BME280;42456;49.956;20.004;2022-08-01T01:15:43;98090.99;;;16.08;85.76
56568;BME280;42456;49.956;20.004;2022-08-01T01:23:50;98090.17;;;16.04;85.87
56568;BME280;42456;49.956;20.004;2022-08-01T01:29:28;98092.66;;;16.03;85.93
56568;BME280;42456;49.956;20.004;2022-08-01T01:34:38;98089.38;;;16.04;85.96
56568;BME280;42456;49.956;20.004;2022-08-01T01:37:09;98092.89;;;16.04;85.95
56568;BME280;42456;49.956;20.004;2022-08-01T01:39:38;98093.65;;;16.05;85.87
56568;BME280;42456;49.956;20.004;2022-08-01T01:42:07;98088.82;;;16.04;85.85
56568;BME280;42456;49.956;20.004;2022-08-01T01:44:35;98087.23;;;16.03;85.85
56568;BME280;42456;49.956;20.004;2022-08-01T01:47:04;98090.55;;;16.03;85.79
56568;BME280;42456;49.956;20.004;2022-08-01T01:49:32;98095.97;;;16.03;85.86
56568;BME280;42456;49.956;20.004;2022-08-01T01:52:00;98091.11;;;16.02;85.76
56568;BME280;42456;49.956;20.004;2022-08-01T01:54:33;98091.67;;;16.02;85.81
56568;BME280;42456;49.956;20.004;2022-08-01T01:57:04;98094.19;;;16.01;85.74
56568;BME280;42456;49.956;20.004;2022-08-01T01:59:33;98096.91;;;16.01;85.75
56568;BME280;42456;49.956;20.004;2022-08-01T02:02:03;98098.26;;;16.01;85.78
56568;BME280;42456;49.956;20.004;2022-08-01T02:04:31;98098.43;;;15.98;85.65
56568;BME280;42456;49.956;20.004;2022-08-01T02:06:59;98097.83;;;15.99;85.65
56568;BME280;42456;49.956;20.004;2022-08-01T02:09:27;98084.64;;;15.97;85.64
56568;BME280;42456;49.956;20.004;2022-08-01T02:11:55;98090.66;;;15.97;85.56
56568;BME280;42456;49.956;20.004;2022-08-01T02:14:22;98083.65;;;15.96;85.48
56568;BME280;42456;49.956;20.004;2022-08-01T02:16:50;98087.89;;;15.93;85.47
56568;BME280;42456;49.956;20.004;2022-08-01T02:19:19;98084.75;;;15.91;85.46
56568;BME280;42456;49.956;20.004;2022-08-01T02:21:52;98083.20;;;15.90;85.44
56568;BME280;42456;49.956;20.004;2022-08-01T02:24:31;98087.08;;;15.89;85.46
56568;BME280;42456;49.956;20.004;2022-08-01T02:27:09;98088.00;;;15.87;85.38
56568;BME280;42456;49.956;20.004;2022-08-01T02:29:57;98086.02;;;15.84;85.37
56568;BME280;42456;49.956;20.004;2022-08-01T02:32:27;98088.54;;;15.83;85.46
56568;BME280;42456;49.956;20.004;2022-08-01T02:35:00;98095.09;;;15.82;85.42
56568;BME280;42456;49.956;20.004;2022-08-01T02:37:31;98091.00;;;15.79;85.42
56568;BME280;42456;49.956;20.004;2022-08-01T02:39:59;98091.36;;;15.77;85.45
56568;BME280;42456;49.956;20.004;2022-08-01T02:42:28;98091.13;;;15.76;85.41
56568;BME280;42456;49.956;20.004;2022-08-01T02:44:56;98102.15;;;15.74;85.32
56568;BME280;42456;49.956;20.004;2022-08-01T02:47:25;98100.37;;;15.72;85.25
56568;BME280;42456;49.956;20.004;2022-08-01T02:49:54;98103.05;;;15.68;85.27
56568;BME280;42456;49.956;20.004;2022-08-01T02:52:23;98106.26;;;15.64;85.24
56568;BME280;42456;49.956;20.004;2022-08-01T02:54:53;98104.08;;;15.60;85.15
56568;BME280;42456;49.956;20.004;2022-08-01T02:57:21;98111.59;;;15.57;85.16
56568;BME280;42456;49.956;20.004;2022-08-01T02:59:50;98117.17;;;15.55;85.19
56568;BME280;42456;49.956;20.004;2022-08-01T03:02:18;98113.84;;;15.52;85.05
56568;BME280;42456;49.956;20.004;2022-08-01T03:04:47;98120.34;;;15.47;84.99
56568;BME280;42456;49.956;20.004;2022-08-01T03:07:15;98119.85;;;15.42;84.87
56568;BME280;42456;49.956;20.004;2022-08-01T03:09:44;98119.81;;;15.38;84.99
56568;BME280;42456;49.956;20.004;2022-08-01T03:12:14;98121.67;;;15.34;84.99
56568;BME280;42456;49.956;20.004;2022-08-01T03:14:44;98123.95;;;15.32;84.99
56568;BME280;42456;49.956;20.004;2022-08-01T03:17:13;98120.54;;;15.26;84.95
56568;BME280;42456;49.956;20.004;2022-08-01T03:19:43;98118.91;;;15.21;84.95
56568;BME280;42456;49.956;20.004;2022-08-01T03:22:12;98119.28;;;15.20;85.03
56568;BME280;42456;49.956;20.004;2022-08-01T03:24:41;98115.17;;;15.16;85.04
56568;BME280;42456;49.956;20.004;2022-08-01T03:27:09;98113.59;;;15.15;85.12
56568;BME280;42456;49.956;20.004;2022-08-01T03:29:37;98105.42;;;15.12;85.10
56568;BME280;42456;49.956;20.004;2022-08-01T03:32:05;98107.14;;;15.10;85.09
56568;BME280;42456;49.956;20.004;2022-08-01T03:34:32;98114.84;;;15.08;85.06
56568;BME280;42456;49.956;20.004;2022-08-01T03:37:05;98116.35;;;15.05;85.09
56568;BME280;42456;49.956;20.004;2022-08-01T03:39:35;98118.27;;;15.05;85.11
56568;BME280;42456;49.956;20.004;2022-08-01T03:42:07;98118.83;;;15.04;85.18
56568;BME280;42456;49.956;20.004;2022-08-01T03:44:36;98116.35;;;15.05;85.13
56568;BME280;42456;49.956;20.004;2022-08-01T03:47:07;98117.75;;;15.09;85.30
56568;BME280;42456;49.956;20.004;2022-08-01T03:49:44;98121.88;;;15.13;85.25
56568;BME280;42456;49.956;20.004;2022-08-01T03:52:09;98124.30;;;15.18;85.08
56568;BME280;42456;49.956;20.004;2022-08-01T03:54:40;98133.69;;;15.24;85.07
56568;BME280;42456;49.956;20.004;2022-08-01T03:57:08;98135.71;;;15.30;84.95
56568;BME280;42456;49.956;20.004;2022-08-01T03:59:35;98137.33;;;15.35;84.86
56568;BME280;42456;49.956;20.004;2022-08-01T04:02:04;98135.55;;;15.42;84.80
56568;BME280;42456;49.956;20.004;2022-08-01T04:04:32;98132.58;;;15.51;84.68
56568;BME280;42456;49.956;20.004;2022-08-01T04:06:59;98136.61;;;15.60;84.56
56568;BME280;42456;49.956;20.004;2022-08-01T04:09:27;98138.92;;;15.71;84.41
56568;BME280;42456;49.956;20.004;2022-08-01T04:11:53;98137.75;;;15.85;84.36
56568;BME280;42456;49.956;20.004;2022-08-01T04:14:20;98136.77;;;15.97;84.14
56568;BME280;42456;49.956;20.004;2022-08-01T04:16:46;98132.84;;;16.07;83.89
56568;BME280;42456;49.956;20.004;2022-08-01T04:19:12;98135.53;;;16.20;83.71
56568;BME280;42456;49.956;20.004;2022-08-01T04:21:39;98135.34;;;16.36;83.47
56568;BME280;42456;49.956;20.004;2022-08-01T04:24:12;98131.88;;;16.52;83.31
56568;BME280;42456;49.956;20.004;2022-08-01T04:26:37;98130.71;;;16.69;83.21
56568;BME280;42456;49.956;20.004;2022-08-01T04:29:06;98130.94;;;16.90;83.02
56568;BME280;42456;49.956;20.004;2022-08-01T04:31:36;98132.72;;;17.13;82.92
56568;BME280;42456;49.956;20.004;2022-08-01T04:34:06;98136.39;;;17.34;82.61
56568;BME280;42456;49.956;20.004;2022-08-01T04:36:34;98135.61;;;17.54;82.00
56568;BME280;42456;49.956;20.004;2022-08-01T04:39:02;98135.91;;;17.69;81.38
56568;BME280;42456;49.956;20.004;2022-08-01T04:41:30;98135.67;;;17.88;81.03
56568;BME280;42456;49.956;20.004;2022-08-01T04:43:57;98138.27;;;18.04;80.59
56568;BME280;42456;49.956;20.004;2022-08-01T04:46:27;98132.91;;;18.18;80.33
56568;BME280;42456;49.956;20.004;2022-08-01T04:48:54;98136.47;;;18.33;79.96
56568;BME280;42456;49.956;20.004;2022-08-01T04:51:21;98142.05;;;18.50;79.66
56568;BME280;42456;49.956;20.004;2022-08-01T04:53:48;98143.25;;;18.63;79.03
56568;BME280;42456;49.956;20.004;2022-08-01T04:56:17;98142.52;;;18.77;78.71
56568;BME280;42456;49.956;20.004;2022-08-01T04:58:47;98144.50;;;18.91;78.16
56568;BME280;42456;49.956;20.004;2022-08-01T05:01:13;98142.00;;;19.06;77.82
56568;BME280;42456;49.956;20.004;2022-08-01T05:03:39;98143.77;;;19.15;77.23
56568;BME280;42456;49.956;20.004;2022-08-01T05:06:06;98142.02;;;19.20;76.70
56568;BME280;42456;49.956;20.004;2022-08-01T05:08:32;98143.56;;;19.10;76.16
56568;BME280;42456;49.956;20.004;2022-08-01T05:10:58;98137.91;;;18.99;75.68
56568;BME280;42456;49.956;20.004;2022-08-01T05:13:25;98141.37;;;18.85;75.42
56568;BME280;42456;49.956;20.004;2022-08-01T05:15:51;98143.28;;;18.74;75.30
56568;BME280;42456;49.956;20.004;2022-08-01T05:18:18;98147.36;;;18.67;75.37
56568;BME280;42456;49.956;20.004;2022-08-01T05:20:44;98148.67;;;18.60;75.13
56568;BME280;42456;49.956;20.004;2022-08-01T05:23:10;98144.40;;;18.59;75.22
56568;BME280;42456;49.956;20.004;2022-08-01T05:25:37;98140.12;;;18.61;75.31
56568;BME280;42456;49.956;20.004;2022-08-01T05:28:04;98140.16;;;18.72;75.51
56568;BME280;42456;49.956;20.004;2022-08-01T05:30:30;98133.05;;;19.02;75.39
56568;BME280;42456;49.956;20.004;2022-08-01T05:32:57;98145.16;;;19.32;75.21
56568;BME280;42456;49.956;20.004;2022-08-01T05:35:23;98141.09;;;19.60;74.57
56568;BME280;42456;49.956;20.004;2022-08-01T05:37:49;98141.25;;;19.93;74.41
56568;BME280;42456;49.956;20.004;2022-08-01T05:40:16;98150.36;;;20.22;73.47
56568;BME280;42456;49.956;20.004;2022-08-01T05:42:42;98138.58;;;20.50;72.70
56568;BME280;42456;49.956;20.004;2022-08-01T05:45:09;98147.20;;;20.78;72.04
56568;BME280;42456;49.956;20.004;2022-08-01T05:47:36;98140.05;;;21.08;71.81
56568;BME280;42456;49.956;20.004;2022-08-01T05:50:02;98147.85;;;21.39;70.77
56568;BME280;42456;49.956;20.004;2022-08-01T05:52:29;98153.27;;;21.68;70.14
56568;BME280;42456;49.956;20.004;2022-08-01T05:54:56;98157.34;;;21.97;69.24
56568;BME280;42456;49.956;20.004;2022-08-01T05:57:22;98148.23;;;22.25;68.24
56568;BME280;42456;49.956;20.004;2022-08-01T05:59:49;98146.36;;;22.56;67.56
56568;BME280;42456;49.956;20.004;2022-08-01T06:02:15;98147.31;;;22.88;66.32
56568;BME280;42456;49.956;20.004;2022-08-01T06:04:41;98147.04;;;23.20;65.44
56568;BME280;42456;49.956;20.004;2022-08-01T06:07:08;98153.31;;;23.59;64.24
56568;BME280;42456;49.956;20.004;2022-08-01T06:09:34;98155.89;;;23.92;63.59
56568;BME280;42456;49.956;20.004;2022-08-01T06:12:00;98153.60;;;24.22;62.99
56568;BME280;42456;49.956;20.004;2022-08-01T06:14:27;98159.12;;;24.61;61.98
56568;BME280;42456;49.956;20.004;2022-08-01T06:16:53;98150.78;;;25.04;60.72
56568;BME280;42456;49.956;20.004;2022-08-01T06:19:19;98153.70;;;25.56;59.21
56568;BME280;42456;49.956;20.004;2022-08-01T06:21:46;98155.75;;;26.37;57.33
56568;BME280;42456;49.956;20.004;2022-08-01T06:24:12;98155.09;;;27.53;55.77
56568;BME280;42456;49.956;20.004;2022-08-01T06:26:38;98162.44;;;29.14;53.98
56568;BME280;42456;49.956;20.004;2022-08-01T06:29:04;98159.03;;;30.98;52.12
56568;BME280;42456;49.956;20.004;2022-08-01T06:31:31;98166.59;;;32.65;50.04
56568;BME280;42456;49.956;20.004;2022-08-01T06:33:57;98171.78;;;34.14;47.98
56568;BME280;42456;49.956;20.004;2022-08-01T06:36:23;98172.16;;;35.44;45.17
56568;BME280;42456;49.956;20.004;2022-08-01T06:38:51;98170.38;;;36.31;42.78
56568;BME280;42456;49.956;20.004;2022-08-01T06:41:17;98174.14;;;36.49;41.19
56568;BME280;42456;49.956;20.004;2022-08-01T06:43:43;98172.81;;;35.70;40.58
56568;BME280;42456;49.956;20.004;2022-08-01T06:46:10;98166.38;;;34.61;40.70
56568;BME280;42456;49.956;20.004;2022-08-01T06:48:36;98169.94;;;33.57;40.73
56568;BME280;42456;49.956;20.004;2022-08-01T06:51:05;98177.50;;;32.59;41.51
56568;BME280;42456;49.956;20.004;2022-08-01T06:53:37;98175.00;;;31.67;42.24
56568;BME280;42456;49.956;20.004;2022-08-01T06:56:04;98172.94;;;30.88;43.35
56568;BME280;42456;49.956;20.004;2022-08-01T06:58:31;98168.05;;;30.20;44.45
56568;BME280;42456;49.956;20.004;2022-08-01T07:00:59;98172.69;;;29.66;45.28
56568;BME280;42456;49.956;20.004;2022-08-01T07:03:26;98174.16;;;29.13;45.67
56568;BME280;42456;49.956;20.004;2022-08-01T07:05:52;98180.02;;;28.72;46.26
56568;BME280;42456;49.956;20.004;2022-08-01T07:08:19;98175.72;;;28.37;46.76
56568;BME280;42456;49.956;20.004;2022-08-01T07:10:46;98170.09;;;28.07;47.98
56568;BME280;42456;49.956;20.004;2022-08-01T07:13:12;98175.22;;;27.83;48.36
56568;BME280;42456;49.956;20.004;2022-08-01T07:15:40;98173.36;;;27.68;49.21
56568;BME280;42456;49.956;20.004;2022-08-01T07:18:06;98168.91;;;27.53;48.70
56568;BME280;42456;49.956;20.004;2022-08-01T07:20:33;98161.89;;;27.31;49.41
56568;BME280;42456;49.956;20.004;2022-08-01T07:22:59;98170.13;;;27.19;49.60
56568;BME280;42456;49.956;20.004;2022-08-01T07:25:26;98166.31;;;27.08;49.65
56568;BME280;42456;49.956;20.004;2022-08-01T07:27:52;98170.27;;;26.95;49.79
56568;BME280;42456;49.956;20.004;2022-08-01T07:30:18;98172.30;;;26.86;49.73
56568;BME280;42456;49.956;20.004;2022-08-01T07:32:44;98172.27;;;26.74;49.13
56568;BME280;42456;49.956;20.004;2022-08-01T07:35:11;98174.80;;;26.68;49.58
56568;BME280;42456;49.956;20.004;2022-08-01T07:37:37;98174.14;;;26.64;50.08
56568;BME280;42456;49.956;20.004;2022-08-01T07:40:04;98171.59;;;26.62;50.49
56568;BME280;42456;49.956;20.004;2022-08-01T07:42:31;98173.53;;;26.57;50.44
56568;BME280;42456;49.956;20.004;2022-08-01T07:44:58;98175.16;;;26.54;50.37
56568;BME280;42456;49.956;20.004;2022-08-01T07:47:25;98178.03;;;26.51;50.44
56568;BME280;42456;49.956;20.004;2022-08-01T07:49:52;98179.73;;;26.53;50.11
56568;BME280;42456;49.956;20.004;2022-08-01T07:52:26;98173.98;;;26.47;49.49
56568;BME280;42456;49.956;20.004;2022-08-01T07:54:52;98172.10;;;26.44;49.59
56568;BME280;42456;49.956;20.004;2022-08-01T07:57:18;98171.44;;;26.40;50.28
56568;BME280;42456;49.956;20.004;2022-08-01T07:59:46;98166.95;;;26.38;50.38
56568;BME280;42456;49.956;20.004;2022-08-01T08:02:12;98166.59;;;26.44;50.63
56568;BME280;42456;49.956;20.004;2022-08-01T08:04:38;98161.05;;;26.52;50.79
56568;BME280;42456;49.956;20.004;2022-08-01T08:07:04;98158.17;;;26.56;50.09
56568;BME280;42456;49.956;20.004;2022-08-01T08:09:31;98159.11;;;26.57;48.82
56568;BME280;42456;49.956;20.004;2022-08-01T08:11:57;98161.28;;;26.58;48.58
56568;BME280;42456;49.956;20.004;2022-08-01T08:14:23;98160.84;;;26.59;47.86
56568;BME280;42456;49.956;20.004;2022-08-01T08:16:50;98163.09;;;26.56;46.43
56568;BME280;42456;49.956;20.004;2022-08-01T08:19:17;98163.46;;;26.50;46.97
56568;BME280;42456;49.956;20.004;2022-08-01T08:21:43;98164.49;;;26.48;46.51
56568;BME280;42456;49.956;20.004;2022-08-01T08:24:10;98169.85;;;26.47;46.63
56568;BME280;42456;49.956;20.004;2022-08-01T08:26:49;98166.06;;;26.49;46.87
56568;BME280;42456;49.956;20.004;2022-08-01T08:29:18;98165.71;;;26.47;46.45
56568;BME280;42456;49.956;20.004;2022-08-01T08:31:45;98164.53;;;26.40;46.96
56568;BME280;42456;49.956;20.004;2022-08-01T08:34:12;98159.77;;;26.41;47.41
56568;BME280;42456;49.956;20.004;2022-08-01T08:36:38;98164.33;;;26.47;48.28
56568;BME280;42456;49.956;20.004;2022-08-01T08:39:05;98158.17;;;26.56;47.99
56568;BME280;42456;49.956;20.004;2022-08-01T08:41:35;98159.62;;;26.60;48.37
56568;BME280;42456;49.956;20.004;2022-08-01T08:44:03;98164.05;;;26.66;48.23
56568;BME280;42456;49.956;20.004;2022-08-01T08:46:31;98170.94;;;26.66;47.94
56568;BME280;42456;49.956;20.004;2022-08-01T08:49:03;98165.73;;;26.68;47.56
56568;BME280;42456;49.956;20.004;2022-08-01T08:51:34;98171.53;;;26.65;45.98
56568;BME280;42456;49.956;20.004;2022-08-01T08:54:00;98166.70;;;26.61;46.65
56568;BME280;42456;49.956;20.004;2022-08-01T08:56:28;98170.34;;;26.58;46.72
56568;BME280;42456;49.956;20.004;2022-08-01T08:58:57;98168.17;;;26.58;47.15
56568;BME280;42456;49.956;20.004;2022-08-01T09:01:23;98165.58;;;26.59;46.71
56568;BME280;42456;49.956;20.004;2022-08-01T09:03:49;98164.38;;;26.60;47.33
56568;BME280;42456;49.956;20.004;2022-08-01T09:06:16;98165.33;;;26.61;45.85
56568;BME280;42456;49.956;20.004;2022-08-01T09:08:42;98166.20;;;26.58;46.84
56568;BME280;42456;49.956;20.004;2022-08-01T09:11:08;98160.41;;;26.61;47.96
56568;BME280;42456;49.956;20.004;2022-08-01T09:13:35;98161.00;;;26.60;45.51
56568;BME280;42456;49.956;20.004;2022-08-01T09:16:01;98168.95;;;26.58;46.30
56568;BME280;42456;49.956;20.004;2022-08-01T09:18:34;98161.78;;;26.61;47.33
56568;BME280;42456;49.956;20.004;2022-08-01T09:21:15;98167.40;;;26.65;47.00
56568;BME280;42456;49.956;20.004;2022-08-01T09:23:49;98167.40;;;26.65;45.94
56568;BME280;42456;49.956;20.004;2022-08-01T09:26:18;98173.60;;;26.61;44.12
56568;BME280;42456;49.956;20.004;2022-08-01T09:28:47;98175.28;;;26.51;44.27
56568;BME280;42456;49.956;20.004;2022-08-01T09:31:16;98174.42;;;26.46;45.58
56568;BME280;42456;49.956;20.004;2022-08-01T09:33:58;98174.86;;;26.44;45.49
56568;BME280;42456;49.956;20.004;2022-08-01T09:39:13;98178.84;;;26.43;47.11
56568;BME280;42456;49.956;20.004;2022-08-01T09:41:45;98177.45;;;26.43;46.75
56568;BME280;42456;49.956;20.004;2022-08-01T09:44:13;98181.39;;;26.50;46.50
56568;BME280;42456;49.956;20.004;2022-08-01T09:46:54;98168.05;;;26.41;44.43
56568;BME280;42456;49.956;20.004;2022-08-01T09:49:35;98168.09;;;26.33;46.20
56568;BME280;42456;49.956;20.004;2022-08-01T09:54:52;98172.73;;;26.36;46.58
56568;BME280;42456;49.956;20.004;2022-08-01T09:57:21;98166.35;;;26.39;45.72
56568;BME280;42456;49.956;20.004;2022-08-01T09:59:50;98169.36;;;26.36;44.42
56568;BME280;42456;49.956;20.004;2022-08-01T10:02:35;98169.79;;;26.35;43.54
56568;BME280;42456;49.956;20.004;2022-08-01T10:05:06;98169.91;;;26.31;44.01
56568;BME280;42456;49.956;20.004;2022-08-01T10:07:33;98173.92;;;26.35;45.49
56568;BME280;42456;49.956;20.004;2022-08-01T10:10:14;98169.78;;;26.43;46.54
56568;BME280;42456;49.956;20.004;2022-08-01T10:12:41;98168.38;;;26.51;46.12
56568;BME280;42456;49.956;20.004;2022-08-01T10:15:09;98166.70;;;26.61;45.64
56568;BME280;42456;49.956;20.004;2022-08-01T10:17:38;98144.73;;;26.66;43.34
56568;BME280;42456;49.956;20.004;2022-08-01T10:20:07;98169.05;;;26.63;44.86
56568;BME280;42456;49.956;20.004;2022-08-01T10:22:34;98178.34;;;26.69;45.40
56568;BME280;42456;49.956;20.004;2022-08-01T10:25:03;98172.55;;;26.71;44.54
56568;BME280;42456;49.956;20.004;2022-08-01T10:27:32;98174.66;;;26.80;44.76
56568;BME280;42456;49.956;20.004;2022-08-01T10:29:59;98169.70;;;26.87;42.98
56568;BME280;42456;49.956;20.004;2022-08-01T10:32:29;98168.95;;;26.87;41.74
56568;BME280;42456;49.956;20.004;2022-08-01T10:34:56;98164.56;;;26.81;41.38
56568;BME280;42456;49.956;20.004;2022-08-01T10:37:23;98170.86;;;26.82;43.45
56568;BME280;42456;49.956;20.004;2022-08-01T10:39:51;98161.11;;;26.85;43.22
56568;BME280;42456;49.956;20.004;2022-08-01T10:42:18;98169.11;;;26.88;42.71
56568;BME280;42456;49.956;20.004;2022-08-01T10:44:46;98167.88;;;26.89;42.71
56568;BME280;42456;49.956;20.004;2022-08-01T10:47:18;98162.70;;;26.91;43.76
56568;BME280;42456;49.956;20.004;2022-08-01T10:53:17;98159.41;;;26.96;44.03
56568;BME280;42456;49.956;20.004;2022-08-01T10:56:00;98165.50;;;27.03;43.74
56568;BME280;42456;49.956;20.004;2022-08-01T10:58:33;98160.13;;;27.04;43.58
56568;BME280;42456;49.956;20.004;2022-08-01T11:01:18;98164.33;;;27.09;44.80
56568;BME280;42456;49.956;20.004;2022-08-01T11:04:04;98160.59;;;27.15;44.29
56568;BME280;42456;49.956;20.004;2022-08-01T11:06:36;98157.61;;;27.22;43.75
56568;BME280;42456;49.956;20.004;2022-08-01T11:09:19;98158.19;;;27.30;43.81
56568;BME280;42456;49.956;20.004;2022-08-01T11:20:18;98161.71;;;27.85;42.71
56568;BME280;42456;49.956;20.004;2022-08-01T11:28:18;98162.63;;;28.12;41.89
56568;BME280;42456;49.956;20.004;2022-08-01T11:30:49;98168.05;;;28.20;42.99
56568;BME280;42456;49.956;20.004;2022-08-01T11:33:18;98168.62;;;28.32;42.68
56568;BME280;42456;49.956;20.004;2022-08-01T11:41:30;98160.67;;;28.55;40.63
56568;BME280;42456;49.956;20.004;2022-08-01T11:49:44;98155.11;;;28.72;41.14
56568;BME280;42456;49.956;20.004;2022-08-01T11:54:56;98156.03;;;28.95;41.54
56568;BME280;42456;49.956;20.004;2022-08-01T11:57:28;98156.58;;;29.07;41.47
56568;BME280;42456;49.956;20.004;2022-08-01T12:00:01;98156.45;;;29.15;41.71
56568;BME280;42456;49.956;20.004;2022-08-01T12:02:31;98152.79;;;29.23;39.76
56568;BME280;42456;49.956;20.004;2022-08-01T12:05:09;98155.30;;;29.30;39.56
56568;BME280;42456;49.956;20.004;2022-08-01T12:07:39;98155.02;;;29.37;40.05
56568;BME280;42456;49.956;20.004;2022-08-01T12:10:12;98152.86;;;29.41;39.60
56568;BME280;42456;49.956;20.004;2022-08-01T12:15:16;98152.86;;;29.41;39.65
56568;BME280;42456;49.956;20.004;2022-08-01T12:17:45;98150.72;;;29.41;40.06
56568;BME280;42456;49.956;20.004;2022-08-01T12:20:15;98156.09;;;29.40;40.00
56568;BME280;42456;49.956;20.004;2022-08-01T12:22:42;98155.34;;;29.39;40.68
56568;BME280;42456;49.956;20.004;2022-08-01T12:25:11;98157.66;;;29.41;41.62
56568;BME280;42456;49.956;20.004;2022-08-01T12:27:41;98160.72;;;29.43;41.63
56568;BME280;42456;49.956;20.004;2022-08-01T12:30:14;98159.03;;;29.41;41.02
56568;BME280;42456;49.956;20.004;2022-08-01T12:32:44;98150.25;;;29.38;41.08
56568;BME280;42456;49.956;20.004;2022-08-01T12:35:17;98163.16;;;29.32;41.20
56568;BME280;42456;49.956;20.004;2022-08-01T12:37:49;98151.73;;;29.25;41.38
56568;BME280;42456;49.956;20.004;2022-08-01T12:42:49;98161.44;;;29.03;41.11
56568;BME280;42456;49.956;20.004;2022-08-01T12:45:22;98156.63;;;28.95;41.07
56568;BME280;42456;49.956;20.004;2022-08-01T12:47:54;98153.20;;;28.86;40.93
56568;BME280;42456;49.956;20.004;2022-08-01T12:50:24;98155.02;;;28.80;41.11
56568;BME280;42456;49.956;20.004;2022-08-01T12:52:54;98154.66;;;28.74;41.37
56568;BME280;42456;49.956;20.004;2022-08-01T12:55:22;98157.25;;;28.68;41.30
56568;BME280;42456;49.956;20.004;2022-08-01T13:00:38;98148.89;;;28.59;41.42
56568;BME280;42456;49.956;20.004;2022-08-01T13:03:12;98149.78;;;28.56;41.44
56568;BME280;42456;49.956;20.004;2022-08-01T13:05:44;98147.77;;;28.57;41.60
56568;BME280;42456;49.956;20.004;2022-08-01T13:08:21;98150.27;;;28.59;42.05
56568;BME280;42456;49.956;20.004;2022-08-01T13:10:50;98148.58;;;28.62;42.56
56568;BME280;42456;49.956;20.004;2022-08-01T13:13:18;98139.05;;;28.63;42.76
56568;BME280;42456;49.956;20.004;2022-08-01T13:15:46;98142.96;;;28.70;42.94
56568;BME280;42456;49.956;20.004;2022-08-01T13:18:29;98140.01;;;28.69;43.26
56568;BME280;42456;49.956;20.004;2022-08-01T13:21:11;98138.00;;;28.65;43.29
56568;BME280;42456;49.956;20.004;2022-08-01T13:24:01;98141.03;;;28.58;43.35
56568;BME280;42456;49.956;20.004;2022-08-01T13:26:40;98139.59;;;28.49;43.70
56568;BME280;42456;49.956;20.004;2022-08-01T13:29:09;98140.55;;;28.38;43.91
56568;BME280;42456;49.956;20.004;2022-08-01T13:31:37;98138.48;;;28.29;44.50
56568;BME280;42456;49.956;20.004;2022-08-01T13:34:04;98141.63;;;28.19;44.31
56568;BME280;42456;49.956;20.004;2022-08-01T13:36:31;98135.42;;;28.10;44.95
56568;BME280;42456;49.956;20.004;2022-08-01T13:38:58;98131.16;;;27.97;44.05
56568;BME280;42456;49.956;20.004;2022-08-01T13:41:39;98140.04;;;27.84;44.22
56568;BME280;42456;49.956;20.004;2022-08-01T13:44:05;98137.63;;;27.73;43.45
56568;BME280;42456;49.956;20.004;2022-08-01T13:46:33;98135.41;;;27.64;43.81
56568;BME280;42456;49.956;20.004;2022-08-01T13:49:01;98134.08;;;27.56;43.71
56568;BME280;42456;49.956;20.004;2022-08-01T13:51:28;98137.84;;;27.49;43.65
56568;BME280;42456;49.956;20.004;2022-08-01T13:53:54;98139.61;;;27.43;43.47
56568;BME280;42456;49.956;20.004;2022-08-01T13:56:20;98136.05;;;27.38;43.66
56568;BME280;42456;49.956;20.004;2022-08-01T13:58:46;98138.08;;;27.29;43.92
56568;BME280;42456;49.956;20.004;2022-08-01T14:01:13;98135.26;;;27.25;44.13
56568;BME280;42456;49.956;20.004;2022-08-01T14:03:39;98146.22;;;27.20;44.57